Grand Forks Air Force Base, ND

12:32 PM CDT on July 10, 2014 (GMT -0500)
Crookston Municipal-Kirkwood (KCKN) Elev 899 ft | 47.84 °N, 96.62 °W | Change Station

Current weather conditions updated 18 minutes ago

Clear
Clear
77 °F
Feels Like 77 °F
N
16
Wind Variable Wind from South

Today is forecast to be Much Warmer than yesterday.

Today
High -- | Low -- °F
--% Chance of Precip.
Yesterday
High -- | Low -- °F
Precip. -- in
5:41 AM 9:28 PM
Waxing Gibbous, 96% visible
Pressure 29.94 in
Visibility 10.0 miles
Clouds Clear
Dew Point 57 °F
Humidity 50%
Rainfall 0.00 in
Snow Depth Not available.
UV 10 out of 12
Pollen 4.70 out of 12
Air Quality Not available.
Flu Activity Sporadic
METAR KCKN 101714Z AUTO 17014KT 10SM CLR 25/14 A2994 RMK AO2

More Conditions Fewer Conditions

Pressure 29.94 in
Visibility 10.0 miles
Clouds Clear
Dew Point 57 °F
Humidity 50%
Rainfall 0.00 in
Snow Depth Not available.
UV 10 out of 12
Pollen 4.70 out of 12
Air Quality Not available.
Flu Activity Sporadic
METAR KCKN 101714Z AUTO 17014KT 10SM CLR 25/14 A2994 RMK AO2

More Conditions Fewer Conditions

10-Day Weather Forecast

Almanac

Astronomy

Jul. 10, 2014 Rise Set
Actual Time 5:41 AM CDT 9:28 PM CDT
Civil Twilight 5:01 AM CDT 10:07 PM CDT
Nautical Twilight 4:06 AM CDT 11:02 PM CDT
Astronomical Twilight 2:46 AM CDT 12:21 AM CDT
Moon 7:37 PM CDT 3:58 AM CDT
Length of Visible Light 17h 06m
Length of Day
15h 47m
Tomorrow will be 1m 34s shorter.
Waxing Gibbous, 96% of the Moon is Illuminated
Today
Waxing Gibbous
Jul 12
Full
Jul 18
Last Quarter
Jul 26
New
Aug 3
First Quarter

Today's Extremes

State Highs State Lows

Community

WunderPhotos

Upload Photos

1,732,202 photos uploaded!

WunderBlogs® & News

Nearby

Snow Depth

Station Depth Elevation
No new snow has been reported.

Earthquake Activity

City Distance Mag. Time & Date
No recent earthquake activity has been reported nearby.
Minimum magnitude displayed is 2.5.

Coastal Water Temperatures

Place Temperature
No Stations Reporting

Nearby Weather Stations

Station Location Temp. Heat Index Dew Point Humidity Wind Precip. Elev Updated Type
Grand Forks, ND 77.0 °F 79 °F 59 °F 54% NNE  at  7.7 mph 0.00 in / hr 830 ft 11:57 AM CDT Rapid Fire

Show More Stations Show Fewer Stations